Time;durP1;ratioP1;P1;durP2;ratioP2;P2;SDS_P1;SDS_P2;PMS_P1;PMS_P2;Temp;Humidity;BMP_temperature;BMP_pressure;BME280_temperature;BME280_humidity;BME280_pressure;Samples;Min_cycle;Max_cycle;Signal;HPM_P1;HPM_P2
2021/10/24 00:01:32;;;;;;;3.57;1.80;;;;;;;;;;4536763;28;20040;-57
2021/10/24 00:03:43;;;;;;;3.45;1.70;;;;;;;;;;4536473;28;20303;-57
2021/10/24 00:05:54;;;;;;;2.27;1.47;;;;;;;;;;4525795;28;20033;-57
2021/10/24 00:08:04;;;;;;;;;;;;;;;;;;4538018;28;20571;-57
2021/10/24 00:10:15;;;;;;;3.53;1.67;;;;;;;;;;4538085;28;19939;-57
2021/10/24 00:12:25;;;;;;;2.57;1.43;;;;;;;;;;4537744;28;20044;-58
2021/10/24 00:14:36;;;;;;;3.07;1.63;;;;;;;;;;4527325;28;20422;-58
2021/10/24 00:16:46;;;;;;;2.77;1.67;;;;;;;;;;4521785;28;20041;-58
2021/10/24 00:18:57;;;;;;;2.30;1.43;;;;;;;;;;4536065;28;20042;-58
2021/10/24 00:21:07;;;;;;;2.33;1.50;;;;;;;;;;4538824;28;20103;-58
2021/10/24 00:23:18;;;;;;;3.10;1.73;;;;;;;;;;4536279;28;20033;-58
2021/10/24 00:25:28;;;;;;;3.30;1.70;;;;;;;;;;4523668;28;20489;-58
2021/10/24 00:27:39;;;;;;;2.50;1.70;;;;;;;;;;4539840;28;20120;-58
2021/10/24 00:29:49;;;;;;;3.00;1.80;;;;;;;;;;4535402;28;20690;-58
2021/10/24 00:32:00;;;;;;;2.80;1.60;;;;;;;;;;4538085;28;20045;-58
2021/10/24 00:34:10;;;;;;;2.47;1.47;;;;;;;;;;4537611;28;20045;-58
2021/10/24 00:36:21;;;;;;;3.10;1.70;;;;;;;;;;4537191;28;20032;-58
2021/10/24 00:38:31;;;;;;;1.77;1.50;;;;;;;;;;4522937;28;20349;-58
2021/10/24 00:40:43;;;;;;;3.30;1.63;;;;;;;;;;4538333;28;20421;-58
2021/10/24 00:42:54;;;;;;;2.75;1.60;;;;;;;;;;4540179;28;20053;-58
2021/10/24 00:45:05;;;;;;;2.72;1.50;;;;;;;;;;4511821;28;20936;-58
2021/10/24 00:47:16;;;;;;;1.77;1.42;;;;;;;;;;4538207;28;20032;-58
2021/10/24 00:49:27;;;;;;;2.90;1.47;;;;;;;;;;4525510;28;20076;-58
2021/10/24 00:51:37;;;;;;;3.67;1.63;;;;;;;;;;4520781;28;20045;-58
2021/10/24 00:53:48;;;;;;;2.27;1.50;;;;;;;;;;4537165;28;20033;-58
2021/10/24 00:55:59;;;;;;;2.37;1.40;;;;;;;;;;4537435;28;20037;-58
2021/10/24 00:58:10;;;;;;;2.60;1.73;;;;;;;;;;4537387;28;20497;-58
2021/10/24 01:00:21;;;;;;;;;;;;;;;;;;4500259;28;20038;-58
2021/10/24 01:02:31;;;;;;;1.88;1.30;;;;;;;;;;4538248;28;20451;-58
2021/10/24 01:04:43;;;;;;;3.43;1.67;;;;;;;;;;4519290;28;20045;-58
2021/10/24 01:06:54;;;;;;;2.17;1.30;;;;;;;;;;4536241;28;20039;-57
2021/10/24 01:09:07;;;;;;;2.40;1.48;;;;;;;;;;4535997;28;20033;-58
2021/10/24 01:11:18;;;;;;;3.17;1.50;;;;;;;;;;4536099;28;20029;-57
2021/10/24 01:13:28;;;;;;;2.90;1.70;;;;;;;;;;4533878;28;20523;-58
2021/10/24 01:15:39;;;;;;;2.17;1.30;;;;;;;;;;4525136;28;20041;-58
2021/10/24 01:17:50;;;;;;;2.65;1.60;;;;;;;;;;4529231;28;20092;-57
2021/10/24 01:20:03;;;;;;;2.65;1.75;;;;;;;;;;4520691;28;20038;-57
2021/10/24 01:22:14;;;;;;;2.28;1.40;;;;;;;;;;4523304;28;20060;-58
2021/10/24 01:24:24;;;;;;;2.63;1.27;;;;;;;;;;4529379;28;20628;-58
2021/10/24 01:26:36;;;;;;;2.43;1.53;;;;;;;;;;4523056;28;20029;-58
2021/10/24 01:28:47;;;;;;;3.20;1.45;;;;;;;;;;4527572;28;20025;-57
2021/10/24 01:30:58;;;;;;;1.88;1.20;;;;;;;;;;4536741;28;20115;-57
2021/10/24 01:33:12;;;;;;;2.63;1.40;;;;;;;;;;4509515;28;20108;-58
2021/10/24 01:35:23;;;;;;;3.63;1.60;;;;;;;;;;4535275;28;20025;-58
2021/10/24 01:37:36;;;;;;;2.47;1.47;;;;;;;;;;4532407;28;20632;-57
2021/10/24 01:39:47;;;;;;;1.90;1.30;;;;;;;;;;4536193;28;20123;-57
2021/10/24 01:41:57;;;;;;;2.90;1.40;;;;;;;;;;4524391;28;20033;-57
2021/10/24 01:44:08;;;;;;;3.00;1.50;;;;;;;;;;4519910;28;20525;-58
2021/10/24 01:46:22;;;;;;;3.60;1.60;;;;;;;;;;4537318;28;20036;-58
2021/10/24 01:48:33;;;;;;;1.88;1.50;;;;;;;;;;4519304;28;20041;-58
2021/10/24 01:50:44;;;;;;;2.03;1.37;;;;;;;;;;4519100;28;20748;-58
2021/10/24 01:52:54;;;;;;;2.67;1.58;;;;;;;;;;4519596;28;20144;-57
2021/10/24 01:55:08;;;;;;;2.93;1.63;;;;;;;;;;4537652;28;20115;-58
2021/10/24 01:57:18;;;;;;;3.15;1.52;;;;;;;;;;4535005;28;20128;-57
2021/10/24 01:59:29;;;;;;;1.93;1.20;;;;;;;;;;4536818;28;20039;-58
2021/10/24 02:02:12;;;;;;;2.90;1.50;;;;;;;;;;4526007;28;20041;-58
2021/10/24 02:04:42;;;;;;;1.63;1.25;;;;;;;;;;4535587;28;20176;-58
2021/10/24 02:07:07;;;;;;;1.85;1.30;;;;;;;;;;4517353;28;20040;-57
2021/10/24 02:09:17;;;;;;;2.07;1.27;;;;;;;;;;4533798;28;29359;-57
2021/10/24 02:11:27;;;;;;;2.40;1.30;;;;;;;;;;4532718;28;20500;-58
2021/10/24 02:13:38;;;;;;;2.80;1.33;;;;;;;;;;4523540;28;20038;-57
2021/10/24 02:15:51;;;;;;;2.30;1.30;;;;;;;;;;4524691;28;20036;-57
2021/10/24 02:18:03;;;;;;;2.43;1.30;;;;;;;;;;4534958;28;21936;-58
2021/10/24 02:20:18;;;;;;;3.30;1.52;;;;;;;;;;4533259;28;20579;-57
2021/10/24 02:22:29;;;;;;;1.20;1.10;;;;;;;;;;4535376;28;20117;-58
2021/10/24 02:24:41;;;;;;;1.50;1.07;;;;;;;;;;4533657;28;20068;-57
2021/10/24 02:26:51;;;;;;;2.53;1.15;;;;;;;;;;4534752;28;20021;-58
2021/10/24 02:29:02;;;;;;;1.87;1.37;;;;;;;;;;4532352;28;20041;-58
2021/10/24 02:31:12;;;;;;;2.27;0.93;;;;;;;;;;4535924;28;20042;-58
2021/10/24 02:33:29;;;;;;;2.13;1.10;;;;;;;;;;4532897;28;20069;-57
2021/10/24 02:35:59;;;;;;;2.15;1.20;;;;;;;;;;4536597;28;20048;-58
2021/10/24 02:38:10;;;;;;;2.00;1.30;;;;;;;;;;4535594;28;20490;-57
2021/10/24 02:40:21;;;;;;;1.53;1.00;;;;;;;;;;4526322;28;20048;-58
2021/10/24 02:42:36;;;;;;;1.63;1.13;;;;;;;;;;4538299;28;20056;-57
2021/10/24 02:44:46;;;;;;;2.33;1.23;;;;;;;;;;4535588;28;20128;-57
2021/10/24 02:46:57;;;;;;;2.60;1.30;;;;;;;;;;4533276;28;20037;-57
2021/10/24 02:49:07;;;;;;;1.80;1.03;;;;;;;;;;4533130;28;20036;-58
2021/10/24 02:51:20;;;;;;;3.00;1.40;;;;;;;;;;4531856;28;20037;-58
2021/10/24 02:53:31;;;;;;;2.07;1.40;;;;;;;;;;4523526;28;24208;-58
2021/10/24 02:55:46;;;;;;;2.03;1.38;;;;;;;;;;4512831;28;20120;-57
2021/10/24 02:57:57;;;;;;;2.47;1.10;;;;;;;;;;4537147;28;20100;-58
2021/10/24 03:00:09;;;;;;;1.88;1.10;;;;;;;;;;4520852;28;20073;-58
2021/10/24 03:02:20;;;;;;;2.33;1.17;;;;;;;;;;4499516;28;20097;-57
2021/10/24 03:04:31;;;;;;;1.65;1.10;;;;;;;;;;4532767;28;20544;-58
2021/10/24 03:06:42;;;;;;;2.07;1.20;;;;;;;;;;4532982;28;20082;-58
2021/10/24 03:08:52;;;;;;;1.85;1.35;;;;;;;;;;4535507;28;20037;-58
2021/10/24 03:11:03;;;;;;;2.50;1.20;;;;;;;;;;4527502;28;20033;-58
2021/10/24 03:13:15;;;;;;;2.80;1.40;;;;;;;;;;4538167;28;20503;-57
2021/10/24 03:15:30;;;;;;;2.72;1.20;;;;;;;;;;4529941;28;20084;-58
2021/10/24 03:17:41;;;;;;;2.13;1.27;;;;;;;;;;4539898;28;20037;-60
2021/10/24 03:19:52;;;;;;;2.77;1.17;;;;;;;;;;4520241;28;20049;-57
2021/10/24 03:22:04;;;;;;;2.27;1.10;;;;;;;;;;4536457;28;20355;-57
2021/10/24 03:24:17;;;;;;;2.10;1.38;;;;;;;;;;4520618;28;20046;-58
2021/10/24 03:26:28;;;;;;;2.15;1.30;;;;;;;;;;4509072;28;20061;-58
2021/10/24 03:28:39;;;;;;;3.17;1.40;;;;;;;;;;4537545;28;20116;-57
2021/10/24 03:30:50;;;;;;;2.10;1.27;;;;;;;;;;4523375;28;20501;-58
2021/10/24 03:33:00;;;;;;;1.97;1.30;;;;;;;;;;4538558;28;20029;-57
2021/10/24 03:35:10;;;;;;;2.17;1.50;;;;;;;;;;4528339;28;20042;-57
2021/10/24 03:37:21;;;;;;;2.70;1.20;;;;;;;;;;4538892;28;20036;-57
2021/10/24 03:39:35;;;;;;;3.00;1.65;;;;;;;;;;4508452;28;20596;-57
2021/10/24 03:41:48;;;;;;;2.83;1.50;;;;;;;;;;4536746;28;20070;-57
2021/10/24 03:44:00;;;;;;;3.25;1.30;;;;;;;;;;4536574;28;20628;-57
2021/10/24 03:46:11;;;;;;;1.67;1.23;;;;;;;;;;4527884;28;20045;-57
2021/10/24 03:48:21;;;;;;;2.67;1.43;;;;;;;;;;4508885;28;20460;-57
2021/10/24 03:50:34;;;;;;;2.15;1.23;;;;;;;;;;4524728;28;20615;-58
2021/10/24 03:52:45;;;;;;;2.97;1.40;;;;;;;;;;4510454;28;20056;-57
2021/10/24 03:54:55;;;;;;;1.80;1.40;;;;;;;;;;4535601;28;20303;-57
2021/10/24 03:57:06;;;;;;;2.00;1.50;;;;;;;;;;4537036;28;20489;-57
2021/10/24 03:59:16;;;;;;;2.00;1.30;;;;;;;;;;4537563;28;20065;-57
2021/10/24 04:01:27;;;;;;;1.77;1.47;;;;;;;;;;4535505;28;20148;-57
2021/10/24 04:03:38;;;;;;;1.90;1.40;;;;;;;;;;4519967;28;20037;-57
2021/10/24 04:05:49;;;;;;;1.90;1.27;;;;;;;;;;4535502;28;20171;-57
2021/10/24 04:08:02;;;;;;;1.63;1.13;;;;;;;;;;4536939;28;20037;-57
2021/10/24 04:10:13;;;;;;;2.58;1.52;;;;;;;;;;4524277;28;20043;-57
2021/10/24 04:12:24;;;;;;;1.97;1.37;;;;;;;;;;4524393;28;20405;-57
2021/10/24 04:14:34;;;;;;;2.23;1.23;;;;;;;;;;4529167;28;20039;-58
2021/10/24 04:16:44;;;;;;;1.77;1.03;;;;;;;;;;4535740;28;20420;-57
2021/10/24 04:19:15;;;;;;;1.98;1.20;;;;;;;;;;4536062;28;20080;-57
2021/10/24 04:21:30;;;;;;;2.40;1.40;;;;;;;;;;4539007;28;20029;-57
2021/10/24 04:23:42;;;;;;;1.77;1.20;;;;;;;;;;4520285;28;20038;-57
2021/10/24 04:25:53;;;;;;;2.47;0.95;;;;;;;;;;4514793;28;20049;-57
2021/10/24 04:28:04;;;;;;;2.50;1.17;;;;;;;;;;4535101;28;20045;-57
2021/10/24 04:30:14;;;;;;;1.87;1.20;;;;;;;;;;4521685;28;20045;-57
2021/10/24 04:32:26;;;;;;;2.30;1.30;;;;;;;;;;4535108;28;20037;-57
2021/10/24 04:34:36;;;;;;;2.28;1.40;;;;;;;;;;4529046;28;20036;-57
2021/10/24 04:36:47;;;;;;;1.80;1.20;;;;;;;;;;4534414;28;20040;-57
2021/10/24 04:38:57;;;;;;;3.97;1.50;;;;;;;;;;4536498;28;20795;-57
2021/10/24 04:41:08;;;;;;;2.47;1.00;;;;;;;;;;4533990;28;20032;-57
2021/10/24 04:43:18;;;;;;;2.20;1.20;;;;;;;;;;4535528;28;20041;-57
2021/10/24 04:45:30;;;;;;;2.97;1.20;;;;;;;;;;4535191;28;20140;-57
2021/10/24 04:47:41;;;;;;;1.70;1.20;;;;;;;;;;4518930;28;20083;-57
2021/10/24 04:49:52;;;;;;;2.90;1.47;;;;;;;;;;4538122;28;20115;-57
2021/10/24 04:52:02;;;;;;;2.27;1.20;;;;;;;;;;4521733;28;20029;-57
2021/10/24 04:54:13;;;;;;;1.67;1.20;;;;;;;;;;4523266;28;20041;-57
2021/10/24 04:56:24;;;;;;;2.53;1.30;;;;;;;;;;4524638;28;20037;-57
2021/10/24 04:58:35;;;;;;;1.23;1.00;;;;;;;;;;4536874;28;20041;-57
2021/10/24 05:00:45;;;;;;;1.87;1.40;;;;;;;;;;4537553;28;20076;-58
2021/10/24 05:03:00;;;;;;;1.80;1.20;;;;;;;;;;4519485;28;20037;-58
2021/10/24 05:05:11;;;;;;;1.88;1.30;;;;;;;;;;4534533;28;20033;-58
2021/10/24 05:07:22;;;;;;;3.03;1.70;;;;;;;;;;4535986;28;20045;-58
2021/10/24 05:09:34;;;;;;;2.15;1.30;;;;;;;;;;4532490;28;21087;-58
2021/10/24 05:11:45;;;;;;;1.88;1.40;;;;;;;;;;4520754;28;20104;-59
2021/10/24 05:13:56;;;;;;;1.80;1.40;;;;;;;;;;4537589;28;20138;-59
2021/10/24 05:16:07;;;;;;;1.85;1.35;;;;;;;;;;4517074;28;20194;-58
2021/10/24 05:18:17;;;;;;;2.17;1.50;;;;;;;;;;4536037;28;20089;-58
2021/10/24 05:20:28;;;;;;;1.53;1.10;;;;;;;;;;4535306;28;20040;-58
2021/10/24 05:22:40;;;;;;;1.88;1.38;;;;;;;;;;4528846;28;20095;-58
2021/10/24 05:24:50;;;;;;;3.50;1.47;;;;;;;;;;4515718;28;20032;-58
2021/10/24 05:27:01;;;;;;;2.40;1.50;;;;;;;;;;4536539;28;20033;-58
2021/10/24 05:29:12;;;;;;;2.27;1.40;;;;;;;;;;4510105;28;20041;-58
2021/10/24 05:31:23;;;;;;;1.93;1.30;;;;;;;;;;4522938;28;20417;-58
2021/10/24 05:33:48;;;;;;;2.10;1.30;;;;;;;;;;4528218;28;20104;-58
2021/10/24 05:36:09;;;;;;;2.43;1.60;;;;;;;;;;4535144;28;20112;-58
2021/10/24 05:38:20;;;;;;;1.90;1.50;;;;;;;;;;4535196;28;20033;-58
2021/10/24 05:40:41;;;;;;;2.78;1.48;;;;;;;;;;4538062;28;20037;-58
2021/10/24 05:42:55;;;;;;;1.83;1.30;;;;;;;;;;4533324;28;20029;-59
2021/10/24 05:45:07;;;;;;;2.93;1.50;;;;;;;;;;4527644;28;20025;-58
2021/10/24 05:47:20;;;;;;;3.28;1.80;;;;;;;;;;4529134;28;20071;-58
2021/10/24 05:49:30;;;;;;;3.22;1.63;;;;;;;;;;4521656;28;20113;-58
2021/10/24 05:51:42;;;;;;;;;;;;;;;;;;4511559;28;20606;-58
2021/10/24 05:53:53;;;;;;;2.33;1.23;;;;;;;;;;4519979;28;19917;-58
2021/10/24 05:56:09;;;;;;;2.28;1.55;;;;;;;;;;4522454;28;20032;-58
2021/10/24 05:58:24;;;;;;;2.25;1.25;;;;;;;;;;4521697;28;20121;-58
2021/10/24 06:01:13;;;;;;;2.58;1.40;;;;;;;;;;4515989;28;20591;-58
2021/10/24 06:03:50;;;;;;;2.05;1.25;;;;;;;;;;4515606;28;20153;-58
2021/10/24 06:06:27;;;;;;;2.17;1.30;;;;;;;;;;4532868;28;20052;-58
2021/10/24 06:08:37;;;;;;;5.33;1.50;;;;;;;;;;4534312;28;20044;-58
2021/10/24 06:10:53;;;;;;;2.47;1.50;;;;;;;;;;4535092;28;20095;-58
2021/10/24 06:13:07;;;;;;;3.10;1.48;;;;;;;;;;4520501;28;20132;-58
2021/10/24 06:15:19;;;;;;;3.05;1.48;;;;;;;;;;4519943;28;20040;-59
2021/10/24 06:17:33;;;;;;;2.58;1.40;;;;;;;;;;4534751;28;20044;-58
2021/10/24 06:19:44;;;;;;;1.73;1.17;;;;;;;;;;4533085;28;20025;-58
2021/10/24 06:21:55;;;;;;;2.28;1.60;;;;;;;;;;4534340;28;20065;-59
2021/10/24 06:24:05;;;;;;;2.97;1.63;;;;;;;;;;4533268;28;20572;-59
2021/10/24 06:26:16;;;;;;;2.13;1.27;;;;;;;;;;4534560;28;20477;-59
2021/10/24 06:28:26;;;;;;;2.33;1.53;;;;;;;;;;4532487;28;20041;-59
2021/10/24 06:30:38;;;;;;;2.70;1.43;;;;;;;;;;4518832;28;20044;-59
2021/10/24 06:32:52;;;;;;;2.65;1.75;;;;;;;;;;4532969;28;20115;-59
2021/10/24 06:35:29;;;;;;;2.15;1.40;;;;;;;;;;4517722;28;20055;-59
2021/10/24 06:38:00;;;;;;;3.00;1.70;;;;;;;;;;4535166;28;20069;-58
2021/10/24 06:40:12;;;;;;;1.90;1.40;;;;;;;;;;4533598;28;20140;-58
2021/10/24 06:42:26;;;;;;;2.03;1.40;;;;;;;;;;4532607;28;20037;-58
2021/10/24 06:44:55;;;;;;;3.05;1.58;;;;;;;;;;4539708;28;20041;-58
2021/10/24 06:47:40;;;;;;;2.28;1.67;;;;;;;;;;4479374;28;20053;-58
2021/10/24 06:50:10;;;;;;;3.35;1.80;;;;;;;;;;4524916;28;20044;-59
2021/10/24 06:52:41;;;;;;;3.38;1.90;;;;;;;;;;4535063;28;20041;-61
2021/10/24 06:55:16;;;;;;;3.58;1.77;;;;;;;;;;4523025;28;20889;-59
2021/10/24 06:57:52;;;;;;;3.08;1.63;;;;;;;;;;4538779;28;20044;-59
2021/10/24 07:00:26;;;;;;;3.72;1.80;;;;;;;;;;4526975;28;20077;-59
2021/10/24 07:02:55;;;;;;;2.28;1.50;;;;;;;;;;4523243;28;20040;-60
2021/10/24 07:05:24;;;;;;;2.08;1.70;;;;;;;;;;4533768;28;20473;-59
2021/10/24 07:07:43;;;;;;;3.30;1.80;;;;;;;;;;4505889;28;20056;-59
2021/10/24 07:09:54;;;;;;;1.70;1.60;;;;;;;;;;4525731;28;20033;-59
2021/10/24 07:12:05;;;;;;;3.33;1.80;;;;;;;;;;4523944;28;20041;-59
2021/10/24 07:14:15;;;;;;;3.83;2.00;;;;;;;;;;4537633;28;20128;-59
2021/10/24 07:16:26;;;;;;;3.42;1.92;;;;;;;;;;4535076;28;20037;-59
2021/10/24 07:18:38;;;;;;;2.95;1.95;;;;;;;;;;4537159;28;20946;-59
2021/10/24 07:20:49;;;;;;;3.03;2.10;;;;;;;;;;4525667;28;20080;-59
2021/10/24 07:22:59;;;;;;;2.50;1.80;;;;;;;;;;4535402;28;20060;-59
2021/10/24 07:25:23;;;;;;;2.10;1.60;;;;;;;;;;4533031;28;20118;-59
2021/10/24 07:27:33;;;;;;;2.50;1.70;;;;;;;;;;4519985;28;20116;-58
2021/10/24 07:29:45;;;;;;;4.40;1.80;;;;;;;;;;4520459;28;20200;-59
2021/10/24 07:31:56;;;;;;;2.33;1.60;;;;;;;;;;4512303;28;20552;-59
2021/10/24 07:34:39;;;;;;;3.53;2.15;;;;;;;;;;4513653;28;20042;-59
2021/10/24 07:36:49;;;;;;;2.70;1.80;;;;;;;;;;4526492;28;22981;-59
2021/10/24 07:39:00;;;;;;;3.65;2.15;;;;;;;;;;4527886;28;20041;-59
2021/10/24 07:41:11;;;;;;;4.17;2.03;;;;;;;;;;4524674;28;20422;-59
2021/10/24 07:43:23;;;;;;;3.25;1.92;;;;;;;;;;4536397;28;20039;-58
2021/10/24 07:45:36;;;;;;;3.17;1.90;;;;;;;;;;4519497;28;20044;-59
2021/10/24 07:47:49;;;;;;;3.00;1.90;;;;;;;;;;4522482;28;20583;-59
2021/10/24 07:50:03;;;;;;;3.78;2.35;;;;;;;;;;4535222;28;20029;-59
2021/10/24 07:52:17;;;;;;;3.03;1.80;;;;;;;;;;4503330;28;20057;-59
2021/10/24 07:54:27;;;;;;;3.15;2.03;;;;;;;;;;4535799;28;20820;-59
2021/10/24 07:56:38;;;;;;;3.13;2.00;;;;;;;;;;4515594;28;20104;-59
2021/10/24 07:59:00;;;;;;;4.35;2.22;;;;;;;;;;4534795;28;20063;-59
2021/10/24 08:01:11;;;;;;;3.42;2.00;;;;;;;;;;4525455;28;20113;-60
2021/10/24 08:03:22;;;;;;;4.07;2.47;;;;;;;;;;4509601;28;20177;-59
2021/10/24 08:05:33;;;;;;;4.68;2.67;;;;;;;;;;4525309;28;20188;-59
2021/10/24 08:07:44;;;;;;;3.70;2.50;;;;;;;;;;4537844;28;20550;-59
2021/10/24 08:09:55;;;;;;;3.30;1.80;;;;;;;;;;4520600;28;20092;-59
2021/10/24 08:12:06;;;;;;;;;;;;;;;;;;4535523;28;20036;-58
2021/10/24 08:14:18;;;;;;;2.72;2.03;;;;;;;;;;4510747;28;21108;-59
2021/10/24 08:16:30;;;;;;;3.75;2.42;;;;;;;;;;4520983;28;20553;-59
2021/10/24 08:18:40;;;;;;;3.90;2.63;;;;;;;;;;4518918;28;20029;-59
2021/10/24 08:21:26;;;;;;;4.55;2.10;;;;;;;;;;4524176;28;20036;-59
2021/10/24 08:23:39;;;;;;;2.83;1.95;;;;;;;;;;4522192;28;20036;-59
2021/10/24 08:25:50;;;;;;;3.37;2.33;;;;;;;;;;4519619;28;20109;-59
2021/10/24 08:28:02;;;;;;;;;;;;;;;;;;4521461;28;20041;-59
2021/10/24 08:30:39;;;;;;;3.85;1.80;;;;;;;;;;4519924;28;19967;-59
2021/10/24 08:32:59;;;;;;;3.22;2.08;;;;;;;;;;4535851;28;20032;-59
2021/10/24 08:35:10;;;;;;;3.30;2.20;;;;;;;;;;4523077;28;20037;-59
2021/10/24 08:37:20;;;;;;;3.33;1.95;;;;;;;;;;4519651;28;20088;-59
2021/10/24 08:39:31;;;;;;;7.57;5.40;;;;;;;;;;4538768;28;20041;-59
2021/10/24 08:41:44;;;;;;;4.38;3.20;;;;;;;;;;4519577;28;20033;-59
2021/10/24 08:44:00;;;;;;;3.78;2.60;;;;;;;;;;4534117;28;20056;-59
2021/10/24 08:46:10;;;;;;;4.10;2.83;;;;;;;;;;4535914;28;20584;-59
2021/10/24 08:48:20;;;;;;;3.43;1.80;;;;;;;;;;4528218;28;20397;-59
2021/10/24 08:50:32;;;;;;;3.40;1.83;;;;;;;;;;4532814;28;20047;-59
2021/10/24 08:52:44;;;;;;;3.08;1.92;;;;;;;;;;4536459;28;20036;-59
2021/10/24 08:54:54;;;;;;;4.07;2.10;;;;;;;;;;4537089;28;20041;-59
2021/10/24 08:57:05;;;;;;;2.93;1.90;;;;;;;;;;4535615;28;20045;-59
2021/10/24 08:59:15;;;;;;;4.37;2.40;;;;;;;;;;4534871;28;20072;-59
2021/10/24 09:01:26;;;;;;;3.20;2.03;;;;;;;;;;4537383;28;31665;-59
2021/10/24 09:03:38;;;;;;;3.43;1.90;;;;;;;;;;4535014;28;20107;-59
2021/10/24 09:05:50;;;;;;;2.08;1.70;;;;;;;;;;4524252;28;20157;-59
2021/10/24 09:08:00;;;;;;;3.55;1.90;;;;;;;;;;4533968;28;20103;-59
2021/10/24 09:10:11;;;;;;;4.00;2.10;;;;;;;;;;4534593;28;20036;-59
2021/10/24 09:12:21;;;;;;;2.00;1.67;;;;;;;;;;4534458;28;20039;-59
2021/10/24 09:14:54;;;;;;;2.70;1.80;;;;;;;;;;4537638;28;20041;-59
2021/10/24 09:17:06;;;;;;;3.17;2.00;;;;;;;;;;4534805;28;20116;-59
2021/10/24 09:19:16;;;;;;;3.80;2.22;;;;;;;;;;4515607;28;20672;-59
2021/10/24 09:21:29;;;;;;;2.87;1.80;;;;;;;;;;4534475;28;27806;-59
2021/10/24 09:23:40;;;;;;;3.03;1.48;;;;;;;;;;4535905;28;20509;-59
2021/10/24 09:25:53;;;;;;;2.50;1.77;;;;;;;;;;4521711;28;20037;-59
2021/10/24 09:28:03;;;;;;;3.95;2.00;;;;;;;;;;4519102;28;20034;-59
2021/10/24 09:30:21;;;;;;;2.47;1.70;;;;;;;;;;4535678;28;20504;-58
2021/10/24 09:33:02;;;;;;;3.45;1.90;;;;;;;;;;4537221;28;20038;-59
2021/10/24 09:35:13;;;;;;;2.40;1.50;;;;;;;;;;4536878;28;20029;-59
2021/10/24 09:37:49;;;;;;;3.20;1.73;;;;;;;;;;4524947;28;20040;-59
2021/10/24 09:40:27;;;;;;;3.38;2.08;;;;;;;;;;4522793;28;20132;-59
2021/10/24 09:42:37;;;;;;;1.73;1.05;;;;;;;;;;4521147;28;20052;-59
2021/10/24 09:45:05;;;;;;;2.60;1.60;;;;;;;;;;4535187;28;20055;-59
2021/10/24 09:47:20;;;;;;;2.08;1.40;;;;;;;;;;4537459;28;20084;-58
2021/10/24 09:49:40;;;;;;;3.05;1.60;;;;;;;;;;4503223;28;20044;-59
2021/10/24 09:51:54;;;;;;;1.73;1.20;;;;;;;;;;4518814;28;20039;-59
2021/10/24 09:54:23;;;;;;;2.60;1.30;;;;;;;;;;4512476;28;20111;-59
2021/10/24 09:56:34;;;;;;;2.40;1.55;;;;;;;;;;4514096;28;20041;-59
2021/10/24 09:58:46;;;;;;;1.80;1.20;;;;;;;;;;4512074;28;20073;-59
2021/10/24 10:00:58;;;;;;;1.88;1.30;;;;;;;;;;4532273;28;20681;-59
2021/10/24 10:03:09;;;;;;;2.38;1.38;;;;;;;;;;4522417;28;20573;-59
2021/10/24 10:05:19;;;;;;;2.97;1.60;;;;;;;;;;4534829;28;20045;-59
2021/10/24 10:07:30;;;;;;;2.58;1.55;;;;;;;;;;4534416;28;20038;-59
2021/10/24 10:09:46;;;;;;;3.00;1.60;;;;;;;;;;4533609;28;25890;-59
2021/10/24 10:11:58;;;;;;;3.33;1.63;;;;;;;;;;4535317;28;20088;-59
2021/10/24 10:14:14;;;;;;;1.75;1.10;;;;;;;;;;4533055;28;20028;-59
2021/10/24 10:16:39;;;;;;;2.10;1.45;;;;;;;;;;4533996;28;20041;-59
2021/10/24 10:19:00;;;;;;;1.80;1.20;;;;;;;;;;4526265;28;20049;-59
2021/10/24 10:21:11;;;;;;;2.72;1.48;;;;;;;;;;4536350;28;20029;-59
2021/10/24 10:23:23;;;;;;;1.50;1.10;;;;;;;;;;4531340;28;20493;-59
2021/10/24 10:25:36;;;;;;;1.42;1.00;;;;;;;;;;4538203;28;20153;-59
2021/10/24 10:27:47;;;;;;;2.72;1.50;;;;;;;;;;4535338;28;20945;-59
2021/10/24 10:30:07;;;;;;;1.25;0.90;;;;;;;;;;4535893;28;20025;-59
2021/10/24 10:32:19;;;;;;;2.45;1.15;;;;;;;;;;4534202;28;20033;-59
2021/10/24 10:34:58;;;;;;;2.17;1.17;;;;;;;;;;4539333;28;20041;-59
2021/10/24 10:37:08;;;;;;;2.08;1.40;;;;;;;;;;4535797;28;20082;-59
2021/10/24 10:39:31;;;;;;;2.30;0.97;;;;;;;;;;4532803;28;25968;-59
2021/10/24 10:41:43;;;;;;;2.95;1.20;;;;;;;;;;4533629;28;20037;-59
2021/10/24 10:44:07;;;;;;;1.80;1.08;;;;;;;;;;4533772;28;20057;-59
2021/10/24 10:46:27;;;;;;;1.35;0.80;;;;;;;;;;4534459;28;20048;-60
2021/10/24 10:48:42;;;;;;;2.47;1.00;;;;;;;;;;4529741;28;20040;-62
2021/10/24 10:53:48;;;;;;;1.98;1.00;;;;;;;;;;4519147;28;20053;-63
2021/10/24 10:55:59;;;;;;;2.30;1.38;;;;;;;;;;4531195;28;20587;-61
2021/10/24 10:58:32;;;;;;;2.83;1.33;;;;;;;;;;4534636;28;20021;-61
2021/10/24 11:00:54;;;;;;;2.13;1.20;;;;;;;;;;4536611;28;20091;-61
2021/10/24 11:03:05;;;;;;;2.10;0.90;;;;;;;;;;4485326;28;20039;-59
2021/10/24 11:05:32;;;;;;;1.77;0.90;;;;;;;;;;4535401;28;20029;-61
2021/10/24 11:07:44;;;;;;;1.30;1.00;;;;;;;;;;4517334;28;20033;-61
2021/10/24 11:09:55;;;;;;;1.20;0.85;;;;;;;;;;4535525;28;20801;-61
2021/10/24 11:12:10;;;;;;;1.55;1.20;;;;;;;;;;4534309;28;20032;-61
2021/10/24 11:14:33;;;;;;;2.13;1.13;;;;;;;;;;4534546;28;20596;-61
2021/10/24 11:16:51;;;;;;;2.90;1.20;;;;;;;;;;4534751;28;20598;-62
2021/10/24 11:19:05;;;;;;;1.75;1.10;;;;;;;;;;4535524;28;20029;-61
2021/10/24 11:21:27;;;;;;;2.40;1.10;;;;;;;;;;4517458;28;20053;-62
2021/10/24 11:23:38;;;;;;;2.78;1.20;;;;;;;;;;4517344;28;21385;-61
2021/10/24 11:25:51;;;;;;;1.60;1.00;;;;;;;;;;4499438;28;20746;-62
2021/10/24 11:28:11;;;;;;;1.50;0.90;;;;;;;;;;4528989;28;20029;-62
2021/10/24 11:30:22;;;;;;;2.60;1.13;;;;;;;;;;4537564;28;20103;-61
2021/10/24 11:32:35;;;;;;;1.07;0.80;;;;;;;;;;4538837;28;20064;-62
2021/10/24 11:34:45;;;;;;;1.42;0.93;;;;;;;;;;4538141;28;20087;-62
2021/10/24 11:36:56;;;;;;;2.10;1.10;;;;;;;;;;4537993;28;20068;-61
2021/10/24 11:39:06;;;;;;;1.63;1.00;;;;;;;;;;4517873;28;20037;-61
2021/10/24 11:41:20;;;;;;;1.47;0.90;;;;;;;;;;4537594;28;20068;-61
2021/10/24 11:43:33;;;;;;;1.35;1.00;;;;;;;;;;4535309;28;20901;-61
2021/10/24 11:45:44;;;;;;;3.30;1.08;;;;;;;;;;4520980;28;20080;-61
2021/10/24 11:48:03;;;;;;;2.83;1.07;;;;;;;;;;4537840;28;20199;-61
2021/10/24 11:50:14;;;;;;;2.38;0.80;;;;;;;;;;4536834;28;20063;-61
2021/10/24 11:52:31;;;;;;;2.27;1.13;;;;;;;;;;4537406;28;22365;-61
2021/10/24 11:55:09;;;;;;;1.65;1.05;;;;;;;;;;4537682;28;20064;-61
2021/10/24 11:57:48;;;;;;;1.70;0.82;;;;;;;;;;4537925;28;20073;-61
2021/10/24 12:00:17;;;;;;;1.27;0.80;;;;;;;;;;4536613;28;20156;-61
2021/10/24 12:02:28;;;;;;;1.42;0.98;;;;;;;;;;4537325;28;20566;-61
2021/10/24 12:04:38;;;;;;;1.47;0.80;;;;;;;;;;4538416;28;20071;-62
2021/10/24 12:06:58;;;;;;;2.43;1.00;;;;;;;;;;4518333;28;20481;-62
2021/10/24 12:09:13;;;;;;;2.13;1.10;;;;;;;;;;4537659;28;20041;-61
2021/10/24 12:11:43;;;;;;;1.63;1.00;;;;;;;;;;4535990;28;20984;-61
2021/10/24 12:14:02;;;;;;;1.77;0.98;;;;;;;;;;4534167;28;20074;-62
2021/10/24 12:16:25;;;;;;;2.40;0.85;;;;;;;;;;4538146;28;20029;-61
2021/10/24 12:18:38;;;;;;;1.40;0.98;;;;;;;;;;4519538;28;20116;-61
2021/10/24 12:20:59;;;;;;;2.55;1.00;;;;;;;;;;4536830;28;20592;-61
2021/10/24 12:23:16;;;;;;;1.33;0.70;;;;;;;;;;4495417;28;20043;-61
2021/10/24 12:25:35;;;;;;;1.33;0.90;;;;;;;;;;4517132;28;20128;-61
2021/10/24 12:28:07;;;;;;;2.83;1.42;;;;;;;;;;4537023;28;20131;-63
2021/10/24 12:30:21;;;;;;;1.33;0.80;;;;;;;;;;4518358;28;21135;-61
2021/10/24 12:32:32;;;;;;;1.40;0.80;;;;;;;;;;4536861;28;20230;-61
2021/10/24 12:35:21;;;;;;;1.37;0.80;;;;;;;;;;4519861;28;20042;-61
2021/10/24 12:37:55;;;;;;;4.63;1.42;;;;;;;;;;4465310;28;20046;-62
2021/10/24 12:40:23;;;;;;;1.60;0.80;;;;;;;;;;4466744;28;20046;-62
2021/10/24 12:42:34;;;;;;;1.60;1.10;;;;;;;;;;4443637;28;20636;-61
2021/10/24 12:44:45;;;;;;;2.37;1.10;;;;;;;;;;4465832;28;20173;-61
2021/10/24 12:46:55;;;;;;;2.05;1.23;;;;;;;;;;4465777;28;20046;-62
2021/10/24 12:49:17;;;;;;;1.20;0.60;;;;;;;;;;4483167;28;25941;-62
2021/10/24 12:51:30;;;;;;;1.65;1.20;;;;;;;;;;4463154;28;20039;-61
2021/10/24 12:53:44;;;;;;;2.63;1.35;;;;;;;;;;4453399;28;20047;-62
2021/10/24 12:56:06;;;;;;;1.55;1.00;;;;;;;;;;4445064;28;20108;-62
2021/10/24 12:58:16;;;;;;;2.08;1.00;;;;;;;;;;4482115;28;20860;-62
2021/10/24 13:00:28;;;;;;;1.57;1.07;;;;;;;;;;4464687;28;20035;-63
2021/10/24 13:02:39;;;;;;;1.95;1.20;;;;;;;;;;4481388;28;20084;-61
2021/10/24 13:04:49;;;;;;;1.02;0.80;;;;;;;;;;4482480;28;20050;-61
2021/10/24 13:07:00;;;;;;;1.73;1.13;;;;;;;;;;4482019;28;20042;-62
2021/10/24 13:09:10;;;;;;;2.03;1.10;;;;;;;;;;4526972;28;20068;-63
2021/10/24 13:11:21;;;;;;;2.80;1.00;;;;;;;;;;4536937;28;20021;-62
2021/10/24 13:13:31;;;;;;;1.40;1.00;;;;;;;;;;4537040;28;23623;-62
2021/10/24 13:15:45;;;;;;;1.67;1.00;;;;;;;;;;4537509;28;20060;-62
2021/10/24 13:17:55;;;;;;;1.35;0.82;;;;;;;;;;4536287;28;20167;-62
2021/10/24 13:20:06;;;;;;;1.00;0.90;;;;;;;;;;4536303;28;20024;-62
2021/10/24 13:24:45;;;;;;;1.15;1.00;;;;;;;;;;4536238;28;20045;-61
2021/10/24 13:26:56;;;;;;;0.83;0.80;;;;;;;;;;4537120;28;20437;-62
2021/10/24 13:29:08;;;;;;;1.13;0.97;;;;;;;;;;4536643;28;20024;-63
2021/10/24 13:31:18;;;;;;;0.82;0.75;;;;;;;;;;4535790;28;20021;-61
2021/10/24 13:33:28;;;;;;;1.60;0.90;;;;;;;;;;4518605;28;20515;-62
2021/10/24 13:35:39;;;;;;;1.40;0.83;;;;;;;;;;4536543;28;20029;-62